createdAt,value
2017-06-17T00:00:45.989Z,19.40
2017-06-17T00:03:15.050Z,19.40
2017-06-17T00:05:43.323Z,19.40
2017-06-17T00:08:11.616Z,19.50
2017-06-17T00:10:39.887Z,19.50
2017-06-17T00:13:08.178Z,19.50
2017-06-17T00:15:36.460Z,19.50
2017-06-17T00:18:04.736Z,19.50
2017-06-17T00:20:33.791Z,19.40
2017-06-17T00:23:02.058Z,19.40
2017-06-17T00:25:30.354Z,19.40
2017-06-17T00:27:58.624Z,19.30
2017-06-17T00:30:26.909Z,19.20
2017-06-17T00:32:55.180Z,19.20
2017-06-17T00:35:23.463Z,19.10
2017-06-17T00:37:51.731Z,19.00
2017-06-17T00:40:20.018Z,19.10
2017-06-17T00:42:48.310Z,19.10
2017-06-17T00:45:16.591Z,19.10
2017-06-17T00:47:44.879Z,19.00
2017-06-17T00:50:13.159Z,19.10
2017-06-17T00:52:42.215Z,19.10
2017-06-17T00:55:10.480Z,19.10
2017-06-17T00:57:38.767Z,19.00
2017-06-17T01:03:07.535Z,19.00
2017-06-17T01:05:35.799Z,18.90
2017-06-17T01:08:04.083Z,18.90
2017-06-17T01:10:33.120Z,18.80
2017-06-17T01:13:01.407Z,18.80
2017-06-17T01:15:29.676Z,18.80
2017-06-17T01:17:57.966Z,18.80
2017-06-17T01:20:26.248Z,18.80
2017-06-17T01:22:54.530Z,18.80
2017-06-17T01:25:22.806Z,18.80
2017-06-17T01:27:51.101Z,18.70
2017-06-17T01:30:19.388Z,18.70
2017-06-17T01:32:48.435Z,18.60
2017-06-17T01:35:16.715Z,18.50
2017-06-17T01:37:44.990Z,18.50
2017-06-17T01:40:13.266Z,18.50
2017-06-17T01:42:41.535Z,18.50
2017-06-17T01:45:09.829Z,18.40
2017-06-17T01:47:38.087Z,18.40
2017-06-17T01:50:06.382Z,18.50
2017-06-17T01:52:34.647Z,18.50
2017-06-17T01:55:02.931Z,18.50
2017-06-17T01:57:31.199Z,18.50
2017-06-17T01:59:59.483Z,18.60
2017-06-17T02:02:27.808Z,18.60
2017-06-17T02:04:56.084Z,18.60
2017-06-17T02:07:24.360Z,18.50
2017-06-17T02:09:52.625Z,18.50
2017-06-17T02:12:20.903Z,18.40
2017-06-17T02:14:49.179Z,18.30
2017-06-17T02:17:17.459Z,18.20
2017-06-17T02:19:45.723Z,18.20
2017-06-17T02:22:14.012Z,18.20
2017-06-17T02:24:42.276Z,18.20
2017-06-17T02:27:10.563Z,18.20
2017-06-17T02:29:38.837Z,18.20
2017-06-17T02:32:07.115Z,18.20
2017-06-17T02:34:35.385Z,18.10
2017-06-17T02:37:03.673Z,18.10
2017-06-17T02:39:31.946Z,18.00
2017-06-17T02:42:00.235Z,18.00
2017-06-17T02:44:28.511Z,18.00
2017-06-17T02:46:56.803Z,18.00
2017-06-17T02:49:25.851Z,17.90
2017-06-17T02:51:54.123Z,17.90
2017-06-17T02:54:22.411Z,17.90
2017-06-17T02:56:50.683Z,17.80
2017-06-17T02:59:18.978Z,17.80
2017-06-17T03:01:47.252Z,17.70
2017-06-17T03:04:15.536Z,17.70
2017-06-17T03:06:43.807Z,17.70
2017-06-17T03:09:12.091Z,17.60
2017-06-17T03:11:40.384Z,17.60
2017-06-17T03:14:08.653Z,17.60
2017-06-17T03:16:36.931Z,17.60
2017-06-17T03:19:05.243Z,17.60
2017-06-17T03:21:33.493Z,17.60
2017-06-17T03:24:01.768Z,17.60
2017-06-17T03:26:30.061Z,17.50
2017-06-17T03:28:58.327Z,17.60
2017-06-17T03:31:26.604Z,17.60
2017-06-17T03:33:54.871Z,17.60
2017-06-17T03:36:23.146Z,17.60
2017-06-17T03:38:51.422Z,17.50
2017-06-17T03:41:19.709Z,17.40
2017-06-17T03:43:48.739Z,17.50
2017-06-17T03:46:17.023Z,17.40
2017-06-17T03:48:45.291Z,17.50
2017-06-17T03:51:13.588Z,17.50
2017-06-17T03:53:41.859Z,17.50
2017-06-17T03:56:10.152Z,17.50
2017-06-17T03:58:38.415Z,17.40
2017-06-17T04:01:06.702Z,17.50
2017-06-17T04:03:34.970Z,17.50
2017-06-17T04:06:03.251Z,17.40
2017-06-17T04:08:31.530Z,17.40
2017-06-17T04:10:59.851Z,17.40
2017-06-17T04:13:28.142Z,17.40
2017-06-17T04:15:56.408Z,17.40
2017-06-17T04:18:25.464Z,17.30
2017-06-17T04:20:53.727Z,17.30
2017-06-17T04:23:22.015Z,17.30
2017-06-17T04:25:50.283Z,17.30
2017-06-17T04:28:18.569Z,17.40
2017-06-17T04:30:46.835Z,17.40
2017-06-17T04:33:15.131Z,17.50
2017-06-17T04:35:43.403Z,17.50
2017-06-17T04:38:11.669Z,17.50
2017-06-17T04:40:39.964Z,17.50
2017-06-17T04:43:08.223Z,17.50
2017-06-17T04:45:36.515Z,17.50
2017-06-17T04:48:04.785Z,17.60
2017-06-17T04:50:33.070Z,17.60
2017-06-17T04:53:01.342Z,17.60
2017-06-17T04:55:29.624Z,17.60
2017-06-17T04:57:57.898Z,17.70
2017-06-17T05:00:26.190Z,17.80
2017-06-17T05:02:54.447Z,18.00
2017-06-17T05:05:22.742Z,18.10
2017-06-17T05:07:51.006Z,18.20
2017-06-17T05:10:19.275Z,18.30
2017-06-17T05:12:47.562Z,18.60
2017-06-17T05:15:15.828Z,18.70
2017-06-17T05:17:44.115Z,18.70
2017-06-17T05:20:12.384Z,18.60
2017-06-17T05:22:40.667Z,18.60
2017-06-17T05:25:08.941Z,18.70
2017-06-17T05:27:37.242Z,18.80
2017-06-17T05:30:05.514Z,19.20
2017-06-17T05:32:33.787Z,19.40
2017-06-17T05:35:02.096Z,19.50
2017-06-17T05:37:31.131Z,20.40
2017-06-17T05:39:59.428Z,20.40
2017-06-17T05:42:27.707Z,20.50
2017-06-17T05:44:56.164Z,20.50
2017-06-17T05:47:24.435Z,20.60
2017-06-17T05:49:52.747Z,20.70
2017-06-17T05:52:21.021Z,20.70
2017-06-17T05:54:49.326Z,20.60
2017-06-17T05:57:18.359Z,20.90
2017-06-17T05:59:46.630Z,20.90
2017-06-17T06:02:14.911Z,21.00
2017-06-17T06:04:43.189Z,20.90
2017-06-17T06:07:11.495Z,21.00
2017-06-17T06:09:39.766Z,20.90
2017-06-17T06:12:08.044Z,20.90
2017-06-17T06:14:36.319Z,20.90
2017-06-17T06:17:04.628Z,20.90
2017-06-17T06:19:32.908Z,21.10
2017-06-17T06:22:01.203Z,21.30
2017-06-17T06:24:29.480Z,21.30
2017-06-17T06:26:58.563Z,21.80
2017-06-17T06:29:26.840Z,21.70
2017-06-17T06:31:55.884Z,22.00
2017-06-17T06:34:24.172Z,22.00
2017-06-17T06:36:52.452Z,21.80
2017-06-17T06:39:20.745Z,21.50
2017-06-17T06:41:49.014Z,21.40
2017-06-17T06:44:17.304Z,21.20
2017-06-17T06:46:45.589Z,20.60
2017-06-17T06:49:13.875Z,20.50
2017-06-17T06:51:42.159Z,20.60
2017-06-17T06:54:10.479Z,20.40
2017-06-17T06:56:38.811Z,20.40
2017-06-17T06:59:07.869Z,20.60
2017-06-17T07:01:36.164Z,20.60
2017-06-17T07:04:04.443Z,20.40
2017-06-17T07:06:32.738Z,20.00
2017-06-17T07:09:01.071Z,19.90
2017-06-17T07:11:29.400Z,19.60
2017-06-17T07:13:57.672Z,19.70
2017-06-17T07:16:26.739Z,20.00
2017-06-17T07:18:55.007Z,20.00
2017-06-17T07:21:23.312Z,20.20
2017-06-17T07:23:51.598Z,20.50
2017-06-17T07:26:19.876Z,20.70
2017-06-17T07:28:48.931Z,20.80
2017-06-17T07:31:17.203Z,20.80
2017-06-17T07:33:45.491Z,20.80
2017-06-17T07:36:13.769Z,21.10
2017-06-17T07:38:42.067Z,21.10
2017-06-17T07:41:10.333Z,21.20
2017-06-17T07:43:38.640Z,21.20
2017-06-17T07:46:08.080Z,21.30
2017-06-17T07:48:36.375Z,21.30
2017-06-17T07:51:05.101Z,21.40
2017-06-17T07:53:33.403Z,21.50
2017-06-17T07:56:01.679Z,21.70
2017-06-17T07:58:29.962Z,21.40
2017-06-17T08:00:58.279Z,21.20
2017-06-17T08:03:26.560Z,21.30
2017-06-17T08:05:54.847Z,21.40
2017-06-17T08:08:23.118Z,21.30
2017-06-17T08:10:51.409Z,21.50
2017-06-17T08:13:19.688Z,21.70
2017-06-17T08:15:47.968Z,21.50
2017-06-17T08:18:16.227Z,21.70
2017-06-17T08:20:44.519Z,21.80
2017-06-17T08:23:12.794Z,21.90
2017-06-17T08:25:41.087Z,21.70
2017-06-17T08:28:09.355Z,21.90
2017-06-17T08:30:38.398Z,21.20
2017-06-17T08:33:06.692Z,21.20
2017-06-17T08:35:34.955Z,21.30
2017-06-17T08:38:03.254Z,21.50
2017-06-17T08:40:31.532Z,21.80
2017-06-17T08:42:59.848Z,22.00
2017-06-17T08:45:28.883Z,21.90
2017-06-17T08:47:57.183Z,21.90
2017-06-17T08:50:25.455Z,22.00
2017-06-17T08:52:53.744Z,22.20
2017-06-17T08:55:22.034Z,22.50
2017-06-17T08:57:50.335Z,22.50
2017-06-17T09:00:18.604Z,22.60
2017-06-17T09:02:46.891Z,22.70
2017-06-17T09:05:15.180Z,22.90
2017-06-17T09:07:43.446Z,22.80
2017-06-17T09:10:11.741Z,22.50
2017-06-17T09:12:40.047Z,22.50
2017-06-17T09:15:08.349Z,22.70
2017-06-17T09:17:36.651Z,22.60
2017-06-17T09:20:04.957Z,22.60
2017-06-17T09:22:33.227Z,22.30
2017-06-17T09:25:05.562Z,22.30
2017-06-17T09:27:33.873Z,22.30
2017-06-17T09:30:02.140Z,22.40
2017-06-17T09:32:30.430Z,22.50
2017-06-17T09:34:58.719Z,22.50
2017-06-17T09:37:27.007Z,22.40
2017-06-17T09:39:55.279Z,22.20
2017-06-17T09:42:23.567Z,22.50
2017-06-17T09:44:51.843Z,22.50
2017-06-17T09:47:20.140Z,22.50
2017-06-17T09:49:48.475Z,22.60
2017-06-17T09:52:16.766Z,22.50
2017-06-17T09:54:45.043Z,22.50
2017-06-17T09:57:13.319Z,22.40
2017-06-17T09:59:41.605Z,22.30
2017-06-17T10:02:09.877Z,22.10
2017-06-17T10:04:38.169Z,22.20
2017-06-17T10:07:06.444Z,21.90
2017-06-17T10:09:34.732Z,21.90
2017-06-17T10:12:03.035Z,21.70
2017-06-17T10:14:31.321Z,21.70
2017-06-17T10:16:59.589Z,22.00
2017-06-17T10:19:27.884Z,22.30
2017-06-17T10:21:56.154Z,22.40
2017-06-17T10:24:24.427Z,22.40
2017-06-17T10:26:52.712Z,22.40
2017-06-17T10:29:20.984Z,22.20
2017-06-17T10:31:49.264Z,22.30
2017-06-17T10:34:17.532Z,22.50
2017-06-17T10:36:45.837Z,22.80
2017-06-17T10:39:14.095Z,23.00
2017-06-17T10:41:42.384Z,22.80
2017-06-17T10:44:10.652Z,22.70
2017-06-17T10:46:38.955Z,22.70
2017-06-17T10:49:07.228Z,22.70
2017-06-17T10:51:35.519Z,22.90
2017-06-17T10:54:03.795Z,23.00
2017-06-17T10:56:32.082Z,22.90
2017-06-17T10:59:00.354Z,22.70
2017-06-17T11:01:28.635Z,22.50
2017-06-17T11:03:56.929Z,22.60
2017-06-17T11:06:25.196Z,22.80
2017-06-17T11:08:53.481Z,22.70
2017-06-17T11:11:21.760Z,22.30
2017-06-17T11:13:50.041Z,22.50
2017-06-17T11:16:19.082Z,22.70
2017-06-17T11:18:47.375Z,22.70
2017-06-17T11:21:15.651Z,22.50
2017-06-17T11:23:43.957Z,22.60
2017-06-17T11:26:12.231Z,22.50
2017-06-17T11:28:40.539Z,22.30
2017-06-17T11:31:09.579Z,22.60
2017-06-17T11:33:37.855Z,22.60
2017-06-17T11:36:06.144Z,22.30
2017-06-17T11:38:34.409Z,22.20
2017-06-17T11:41:02.705Z,22.20
2017-06-17T11:43:30.980Z,22.30
2017-06-17T11:45:59.275Z,22.40
2017-06-17T11:48:27.545Z,22.70
2017-06-17T11:50:55.827Z,23.00
2017-06-17T11:53:24.104Z,23.10
2017-06-17T11:55:52.390Z,23.20
2017-06-17T11:58:21.436Z,23.20
2017-06-17T12:00:49.739Z,23.20
2017-06-17T12:03:18.004Z,23.20
2017-06-17T12:05:46.299Z,23.40
2017-06-17T12:08:14.577Z,23.40
2017-06-17T12:10:42.842Z,23.30
2017-06-17T12:13:11.149Z,23.20
2017-06-17T12:15:39.405Z,23.20
2017-06-17T12:18:07.727Z,23.00
2017-06-17T12:20:36.017Z,23.10
2017-06-17T12:23:04.323Z,23.10
2017-06-17T12:25:32.596Z,23.20
2017-06-17T12:28:00.887Z,23.40
2017-06-17T12:30:29.164Z,23.50
2017-06-17T12:32:57.453Z,23.30
2017-06-17T12:35:25.729Z,23.10
2017-06-17T12:37:54.006Z,23.10
2017-06-17T12:40:22.303Z,22.90
2017-06-17T12:42:51.348Z,22.90
2017-06-17T12:45:19.664Z,22.80
2017-06-17T12:47:47.939Z,23.10
2017-06-17T12:50:16.218Z,23.00
2017-06-17T12:52:45.260Z,23.00
2017-06-17T12:55:13.551Z,23.00
2017-06-17T12:57:41.820Z,23.30
2017-06-17T13:00:10.144Z,23.40
2017-06-17T13:02:38.438Z,23.20
2017-06-17T13:05:06.826Z,23.10
2017-06-17T13:07:35.271Z,23.30
2017-06-17T13:10:03.560Z,23.20
2017-06-17T13:12:31.847Z,23.10
2017-06-17T13:15:00.140Z,22.90
2017-06-17T13:17:28.449Z,22.90
2017-06-17T13:19:56.719Z,23.10
2017-06-17T13:22:25.024Z,23.10
2017-06-17T13:24:54.067Z,23.00
2017-06-17T13:27:22.372Z,23.00
2017-06-17T13:29:50.661Z,23.20
2017-06-17T13:32:18.961Z,23.10
2017-06-17T13:34:47.289Z,23.10
2017-06-17T13:37:15.597Z,23.10
2017-06-17T13:39:43.872Z,23.30
2017-06-17T13:42:12.161Z,23.20
2017-06-17T13:44:45.385Z,23.10
2017-06-17T13:47:19.603Z,23.10
2017-06-17T13:49:47.900Z,23.20
2017-06-17T13:52:16.181Z,23.20
2017-06-17T13:54:44.474Z,23.20
2017-06-17T13:57:12.756Z,23.30
2017-06-17T13:59:41.047Z,23.30
2017-06-17T14:02:09.332Z,23.40
2017-06-17T14:04:37.628Z,23.30
2017-06-17T14:07:05.909Z,23.20
2017-06-17T14:09:34.205Z,23.10
2017-06-17T14:12:02.503Z,23.20
2017-06-17T14:14:30.806Z,23.10
2017-06-17T14:16:59.088Z,23.00
2017-06-17T14:19:27.372Z,23.20
2017-06-17T14:22:01.332Z,23.20
2017-06-17T14:24:29.618Z,23.20
2017-06-17T14:26:57.910Z,23.30
2017-06-17T14:29:26.240Z,23.20
2017-06-17T14:31:54.531Z,23.20
2017-06-17T14:34:22.808Z,23.20
2017-06-17T14:36:51.115Z,23.00
2017-06-17T14:39:19.399Z,23.10
2017-06-17T14:41:47.711Z,23.20
2017-06-17T14:44:16.780Z,23.20
2017-06-17T14:46:45.092Z,23.20
2017-06-17T14:49:14.148Z,23.40
2017-06-17T14:51:42.994Z,23.40
2017-06-17T14:54:11.316Z,23.30
2017-06-17T14:56:39.595Z,23.30
2017-06-17T14:59:07.895Z,23.30
2017-06-17T15:01:36.954Z,23.30
2017-06-17T15:04:05.239Z,23.30
2017-06-17T15:06:33.525Z,23.20
2017-06-17T15:09:02.695Z,23.10
2017-06-17T15:11:30.991Z,23.10
2017-06-17T15:13:59.272Z,23.10
2017-06-17T15:16:27.576Z,22.90
2017-06-17T15:18:56.624Z,22.70
2017-06-17T15:21:24.943Z,22.70
2017-06-17T15:23:53.997Z,22.70
2017-06-17T15:26:22.299Z,22.70
2017-06-17T15:28:50.597Z,22.70
2017-06-17T15:31:18.892Z,22.80
2017-06-17T15:33:47.176Z,22.80
2017-06-17T15:36:15.474Z,22.80
2017-06-17T15:38:43.759Z,22.70
2017-06-17T15:41:12.079Z,22.80
2017-06-17T15:43:40.392Z,22.80
2017-06-17T15:46:08.833Z,22.90
2017-06-17T15:48:37.128Z,22.90
2017-06-17T15:51:05.425Z,22.80
2017-06-17T15:53:33.761Z,22.80
2017-06-17T15:56:02.052Z,22.70
2017-06-17T15:58:30.361Z,22.70
2017-06-17T16:00:58.637Z,22.50
2017-06-17T16:03:26.988Z,22.30
2017-06-17T16:05:56.040Z,22.20
2017-06-17T16:08:24.351Z,22.20
2017-06-17T16:10:52.636Z,22.30
2017-06-17T16:13:21.691Z,22.30
2017-06-17T16:15:49.980Z,22.30
2017-06-17T16:18:18.343Z,22.40
2017-06-17T16:20:46.636Z,22.50
2017-06-17T16:23:14.912Z,22.60
2017-06-17T16:25:43.206Z,22.50
2017-06-17T16:28:11.476Z,22.40
2017-06-17T16:30:39.786Z,22.40
2017-06-17T16:33:08.056Z,22.40
2017-06-17T16:35:37.128Z,22.40
2017-06-17T16:38:05.409Z,22.40
2017-06-17T16:40:33.709Z,22.40
2017-06-17T16:43:02.748Z,22.20
2017-06-17T16:45:31.015Z,22.20
2017-06-17T16:47:59.324Z,22.30
2017-06-17T16:50:27.607Z,22.30
2017-06-17T16:52:55.897Z,22.30
2017-06-17T16:55:24.167Z,22.30
2017-06-17T16:57:52.464Z,22.20
2017-06-17T17:00:20.747Z,22.20
2017-06-17T17:02:49.832Z,22.10
2017-06-17T17:05:18.956Z,22.20
2017-06-17T17:07:47.336Z,22.20
2017-06-17T17:10:15.624Z,22.10
2017-06-17T17:12:43.914Z,22.00
2017-06-17T17:15:12.235Z,21.90
2017-06-17T17:17:40.528Z,21.90
2017-06-17T17:20:08.810Z,21.90
2017-06-17T17:22:37.864Z,22.00
2017-06-17T17:25:06.136Z,22.00
2017-06-17T17:27:34.437Z,22.10
2017-06-17T17:30:03.603Z,22.00
2017-06-17T17:32:31.957Z,22.10
2017-06-17T17:35:00.260Z,22.00
2017-06-17T17:37:28.548Z,22.00
2017-06-17T17:39:56.840Z,21.90
2017-06-17T17:42:25.170Z,21.80
2017-06-17T17:44:53.580Z,21.90
2017-06-17T17:47:21.859Z,21.90
2017-06-17T17:49:50.165Z,21.90
2017-06-17T17:52:19.255Z,21.90
2017-06-17T17:54:47.531Z,22.00
2017-06-17T17:57:15.803Z,21.80
2017-06-17T17:59:44.091Z,21.80
2017-06-17T18:02:13.120Z,21.70
2017-06-17T18:04:41.440Z,21.70
2017-06-17T18:07:10.087Z,21.70
2017-06-17T18:09:38.356Z,21.70
2017-06-17T18:12:06.648Z,21.70
2017-06-17T18:14:34.914Z,21.70
2017-06-17T18:17:03.293Z,21.70
2017-06-17T18:19:31.635Z,21.60
2017-06-17T18:21:59.928Z,21.60
2017-06-17T18:24:28.982Z,21.60
2017-06-17T18:26:57.302Z,21.70
2017-06-17T18:29:25.594Z,21.70
2017-06-17T18:31:53.932Z,21.70
2017-06-17T18:34:22.235Z,21.60
2017-06-17T18:36:51.296Z,21.60
2017-06-17T18:39:19.575Z,21.60
2017-06-17T18:41:47.863Z,21.70
2017-06-17T18:44:16.157Z,21.70
2017-06-17T18:46:44.470Z,21.70
2017-06-17T18:49:13.408Z,21.70
2017-06-17T18:51:41.716Z,21.70
2017-06-17T18:54:10.020Z,21.70
2017-06-17T18:56:38.336Z,21.70
2017-06-17T18:59:06.614Z,21.70
2017-06-17T19:01:34.887Z,21.60
2017-06-17T19:04:03.184Z,21.60
2017-06-17T19:06:31.500Z,21.60
2017-06-17T19:08:59.812Z,21.60
2017-06-17T19:11:29.442Z,21.60
2017-06-17T19:13:57.754Z,21.60
2017-06-17T19:16:26.043Z,21.60
2017-06-17T19:18:54.316Z,21.60
2017-06-17T19:21:22.636Z,21.50
2017-06-17T19:23:50.916Z,21.50
2017-06-17T19:26:19.252Z,21.50
2017-06-17T19:28:47.572Z,21.50
2017-06-17T19:31:15.872Z,21.50
2017-06-17T19:33:44.180Z,21.50
2017-06-17T19:36:12.493Z,21.50
2017-06-17T19:38:40.777Z,21.50
2017-06-17T19:41:09.057Z,21.50
2017-06-17T19:43:37.348Z,21.50
2017-06-17T19:46:05.627Z,21.50
2017-06-17T19:48:33.927Z,21.50
2017-06-17T19:51:02.970Z,21.40
2017-06-17T19:53:31.279Z,21.40
2017-06-17T19:55:59.553Z,21.40
2017-06-17T19:58:27.840Z,21.40
2017-06-17T20:00:56.108Z,21.40
2017-06-17T20:03:24.433Z,21.30
2017-06-17T20:05:52.707Z,21.30
2017-06-17T20:08:21.001Z,21.30
2017-06-17T20:10:49.279Z,21.30
2017-06-17T20:13:17.606Z,21.30
2017-06-17T20:15:45.960Z,21.30
2017-06-17T20:18:14.239Z,21.20
2017-06-17T20:20:42.641Z,21.20
2017-06-17T20:23:11.692Z,21.20
2017-06-17T20:25:39.989Z,21.20
2017-06-17T20:28:08.261Z,21.20
2017-06-17T20:30:36.576Z,21.10
2017-06-17T20:33:05.639Z,21.00
2017-06-17T20:35:33.972Z,21.00
2017-06-17T20:38:02.299Z,20.90
2017-06-17T20:40:30.603Z,20.80
2017-06-17T20:42:59.688Z,20.60
2017-06-17T20:45:27.990Z,20.60
2017-06-17T20:47:56.253Z,20.60
2017-06-17T20:50:25.324Z,20.60
2017-06-17T20:52:53.597Z,20.60
2017-06-17T20:55:21.867Z,20.60
2017-06-17T20:57:50.191Z,20.70
2017-06-17T21:00:18.461Z,20.70
2017-06-17T21:02:47.528Z,20.80
2017-06-17T21:05:15.796Z,20.80
2017-06-17T21:07:44.089Z,20.80
2017-06-17T21:10:12.365Z,20.70
2017-06-17T21:12:40.652Z,20.60
2017-06-17T21:15:08.920Z,20.60
2017-06-17T21:17:37.233Z,20.50
2017-06-17T21:20:06.293Z,20.60
2017-06-17T21:22:34.626Z,20.60
2017-06-17T21:25:02.947Z,20.60
2017-06-17T21:27:31.243Z,20.60
2017-06-17T21:30:00.297Z,20.70
2017-06-17T21:32:28.608Z,20.70
2017-06-17T21:34:57.233Z,20.60
2017-06-17T21:37:25.516Z,20.60
2017-06-17T21:39:53.836Z,20.60
2017-06-17T21:42:22.125Z,20.50
2017-06-17T21:44:50.424Z,20.60
2017-06-17T21:47:19.460Z,20.60
2017-06-17T21:49:47.778Z,20.60
2017-06-17T21:52:16.052Z,20.60
2017-06-17T21:54:44.325Z,20.60
2017-06-17T21:57:12.620Z,20.60
2017-06-17T21:59:41.671Z,20.60
2017-06-17T22:02:09.954Z,20.60
2017-06-17T22:04:38.233Z,20.70
2017-06-17T22:07:06.521Z,20.80
2017-06-17T22:09:34.800Z,20.80
2017-06-17T22:12:03.094Z,20.90
2017-06-17T22:14:31.419Z,21.00
2017-06-17T22:16:59.705Z,21.00
2017-06-17T22:19:27.999Z,21.00
2017-06-17T22:21:56.299Z,21.00
2017-06-17T22:24:24.575Z,21.00
2017-06-17T22:26:52.891Z,21.00
2017-06-17T22:29:21.163Z,21.00
2017-06-17T22:31:49.439Z,21.10
2017-06-17T22:34:17.725Z,21.10
2017-06-17T22:36:46.008Z,21.10
2017-06-17T22:39:14.395Z,21.10
2017-06-17T22:41:42.675Z,21.10
2017-06-17T22:44:10.965Z,21.00
2017-06-17T22:46:39.246Z,21.00
2017-06-17T22:49:07.535Z,21.00
2017-06-17T22:51:35.811Z,21.00
2017-06-17T22:54:04.097Z,20.90
2017-06-17T22:56:32.361Z,20.90
2017-06-17T22:59:00.651Z,20.90
2017-06-17T23:01:28.916Z,20.90
2017-06-17T23:03:57.202Z,20.90
2017-06-17T23:06:25.544Z,20.90
2017-06-17T23:08:53.827Z,20.90
2017-06-17T23:11:22.112Z,20.90
2017-06-17T23:13:50.395Z,20.90
2017-06-17T23:16:18.697Z,20.90
2017-06-17T23:18:46.964Z,20.90
2017-06-17T23:21:15.258Z,20.90
2017-06-17T23:23:43.537Z,20.90
2017-06-17T23:26:11.824Z,20.90
2017-06-17T23:28:40.861Z,20.90
2017-06-17T23:31:09.161Z,20.90
2017-06-17T23:33:37.436Z,20.90
2017-06-17T23:36:05.832Z,20.80
2017-06-17T23:38:34.112Z,20.90
2017-06-17T23:41:02.387Z,20.90
2017-06-17T23:43:30.675Z,20.80
2017-06-17T23:45:59.712Z,20.60
2017-06-17T23:48:27.999Z,20.60
2017-06-17T23:50:56.277Z,20.50
2017-06-17T23:53:24.569Z,20.40
2017-06-17T23:55:52.839Z,20.20
2017-06-17T23:58:21.148Z,20.10
